Blue Oak Ranch Reserve, California Weather observations

Data are for 10 minute period ending at time listed.
 Day   Time   Solar   Ave.   Ave.  Ave.  Vector  Max.   Baro.   Total    
  of    of     Rad.   Air    Rel.  Wind   Wind   Wind  Press.  Precip.   
Year   Day            Temp.  Hum.  Speed  Dir.   Gust                    
2016   (PST)  Kw/m2    F      %     mph   deg.    mph    mb.     in.     
-------------------------------------------------------------------------
 243   21:50   0.00   60.4    62    0.3    40     1.5   947.0    0.00 
 243   22:00   0.00   60.6    62    0.6   264     2.6   946.9    0.00 
 243   22:10   0.00   60.4    62    1.1   234     2.7   947.0    0.00 
 243   22:20   0.00   60.5    62    1.5   279     3.7   947.1    0.00 
 243   22:30   0.00   61.6    58    3.7   329     6.4   947.0    0.00 
 243   22:40   0.00   61.9    58    3.9   339     7.6   947.0    0.00 
 243   22:50   0.00   61.4    59    0.8   334     3.5   946.9    0.00 
 243   23:00   0.00   60.2    60    1.9    12     3.7   946.7    0.00 
 243   23:10   0.00   58.9    63    1.5   190     3.4   946.9    0.00 
 243   23:20   0.00   58.9    63    2.2   313     3.7   947.0    0.00 
 243   23:30   0.00   58.5    63    2.9    54     5.8   946.5    0.00 
 243   23:40   0.00   58.2    64    1.7   313     3.9   946.5    0.00 
 243   23:50   0.00   58.0    64    2.0   288     5.0   946.7    0.00 
 244    0:00   0.00   57.5    65    2.0    42     3.1   946.6    0.00 
 244    0:10   0.00   57.0    66    1.1    56     3.1   946.6    0.00 
 244    0:20   0.00   57.4    65    1.6   301     3.0   946.6    0.00 
 244    0:30   0.00   56.8    66    1.6    69     3.4   946.6    0.00 
 244    0:40   0.00   56.3    67    0.9     8     2.4   946.5    0.00 
 244    0:50   0.00   55.7    68    2.9   296     5.3   946.5    0.00 
 244    1:00   0.00   55.3    68    0.9    24     3.7   946.6    0.00 
 244    1:10   0.00   54.8    70    0.4    65     3.2   946.3    0.00 
 244    1:20   0.00   54.5    69    0.0     0     0.0   946.4    0.00 
 244    1:30   0.00   54.7    70    2.8   299     4.7   946.3    0.00 
 244    1:40   0.00   53.6    71    2.4   309     4.0   946.3    0.00 
 244    1:50   0.00   53.0    73    1.2    83     2.6   946.3    0.00 
 244    2:00   0.00   52.8    74    2.1   286     3.4   946.4    0.00 
 244    2:10   0.00   53.2    73    1.8   308     3.1   946.4    0.00 
 244    2:20   0.00   52.7    74    0.6   288     2.5   946.3    0.00 
 244    2:30   0.00   52.7    75    0.6   252     2.1   946.4    0.00 
 244    2:40   0.00   52.7    74    0.3   346     1.1   946.4    0.00 
 244    2:50   0.00   52.1    75    0.7    65     2.0   946.4    0.00 
 244    3:00   0.00   52.4    75    0.3   324     1.4   946.4    0.00 
 244    3:10   0.00   51.9    74    1.3    51     2.0   946.3    0.00 
 244    3:20   0.00   51.9    75    1.4   349     2.8   946.3    0.00 
 244    3:30   0.00   51.8    76    1.7    29     3.4   946.4    0.00 
 244    3:40   0.00   51.6    75    1.5    62     3.9   946.4    0.00 
 244    3:50   0.00   51.5    75    1.3   309     2.3   946.4    0.00 
 244    4:00   0.00   51.2    76    1.9    44     2.9   946.3    0.00 
 244    4:10   0.00   50.6    76    3.1   292     5.8   946.3    0.00 
 244    4:20   0.00   50.8    75    1.8   358     5.8   946.4    0.00 
 244    4:30   0.00   50.7    77    0.7   284     2.3   946.3    0.00 
 244    4:40   0.00   50.3    76    1.9   304     3.9   946.3    0.00 
 244    4:50   0.00   49.5    78    1.2    22     2.9   946.4    0.00 
 244    5:00   0.00   49.4    78    0.8    70     2.5   946.4    0.00 
 244    5:10   0.00   49.4    78    2.4   307     4.2   946.5    0.00 
 244    5:20   0.00   49.0    78    1.1    74     3.1   946.6    0.00 
 244    5:30   0.00   49.3    78    0.1    43     1.2   946.6    0.00 
 244    5:40   0.01   49.5    77    0.6   285     3.0   946.5    0.00 
 244    5:50   0.01   49.1    79    2.2   292     4.0   946.6    0.00 
 244    6:00   0.01   49.2    78    1.2   316     3.4   946.8    0.00 
 244    6:10   0.01   49.5    77    0.2    71     1.3   946.9    0.00 
 244    6:20   0.01   49.6    78    0.8   238     2.1   946.9    0.00 
 244    6:30   0.02   49.7    78    0.9   279     1.7   946.9    0.00 
 244    6:40   0.07   50.3    77    0.5    61     1.5   947.0    0.00 
 244    6:50   0.16   52.4    74    0.7   324     3.6   947.0    0.00 
 244    7:00   0.18   58.0    65    2.6   305     6.9   947.0    0.00 
 244    7:10   0.21   62.6    56    2.7   322     5.3   946.9    0.00 
 244    7:20   0.24   63.6    54    1.1   137     2.5   946.8    0.00 
 244    7:30   0.27   66.1    51    0.6   107     1.6   946.7    0.00 
 244    7:40   0.31   68.8    47    2.5   237     5.3   946.7    0.00 
 244    7:50   0.34   67.6    49    4.7   272     8.3   946.9    0.00 
 244    8:00   0.36   65.8    52    6.4   287     8.4   947.0    0.00 
 244    8:10   0.40   67.1    51    7.2   286     9.4   947.1    0.00 
 244    8:20   0.42   66.9    52    6.7   281     9.3   947.3    0.00 
 244    8:30   0.45   68.6    49    5.8   280     9.6   947.4    0.00 
 244    8:40   0.48   69.4    48    5.6   275     8.0   947.6    0.00 
 244    8:50   0.51   69.5    49    4.7   245     7.4   947.7    0.00 
 244    9:00   0.54   69.2    50    4.4   247     7.5   947.8    0.00 
 244    9:10   0.56   70.4    49    4.6   245     9.1   947.9    0.00 
 244    9:20   0.59   70.5    49    5.6   247     8.6   948.0    0.00 
 244    9:30   0.61   70.1    50    5.7   242    10.6   948.1    0.00 
 244    9:40   0.64   71.6    48    4.2   254     8.1   948.2    0.00 
 244    9:50   0.66   71.8    46    5.6   247     9.1   948.2    0.00 
 244   10:00   0.68   69.6    49    7.4   230    11.8   948.2    0.00 
 244   10:10   0.70   69.7    49    7.5   237    13.7   948.3    0.00 
 244   10:20   0.71   70.6    46    6.9   245    11.2   948.3    0.00 
 244   10:30   0.73   71.0    45    6.5   238    12.9   948.4    0.00 
 244   10:40   0.74   71.8    44    6.2   244    10.4   948.4    0.00 
 244   10:50   0.76   72.1    44    6.7   245    10.9   948.4    0.00 
 244   11:00   0.77   73.1    43    6.5   246    11.2   948.5    0.00 
 244   11:10   0.78   73.3    42    7.4   248    13.5   948.5    0.00 
 244   11:20   0.79   72.6    42    7.5   239    14.5   948.5    0.00 
 244   11:30   0.80   72.7    41    8.4   284    13.4   948.5    0.00 
 244   11:40   0.81   73.0    40    6.9   280    12.4   948.5    0.00 
 244   11:50   0.81   73.7    38    7.8   291    14.0   948.4    0.00 
 244   12:00   0.82   74.8    36    7.3   276    12.2   948.3    0.00 
 244   12:10   0.82   75.0    34    7.4   279    13.9   948.3    0.00 
 244   12:20   0.82   74.6    34    7.8   282    12.7   948.4    0.00 
 244   12:30   0.81   74.4    34    7.7   281    12.8   948.3    0.00 
 244   12:40   0.81   74.7    34    7.4   280    12.1   948.4    0.00 
 244   12:50   0.80   74.7    34    6.0   274    11.6   948.3    0.00 
 244   13:00   0.77   75.4    34    7.0   282    12.8   948.3    0.00 
 244   13:10   0.78   74.4    36    6.4   301    12.7   948.3    0.00 
 244   13:20   0.78   74.7    36    5.9   292    13.0   948.2    0.00 
 244   13:30   0.77   75.0    32    6.0   286    11.2   948.1    0.00 
 244   13:40   0.76   75.3    33    6.2   296    11.2   948.0    0.00 
 244   13:50   0.74   75.0    34    7.1   282    12.5   947.9    0.00 
 244   14:00   0.73   75.5    33    6.1   294    12.3   947.9    0.00 
 244   14:10   0.71   74.5    33    7.7   294    13.8   947.9    0.00 
 244   14:20   0.69   75.0    32    8.0   289    15.6   947.9    0.00 
 244   14:30   0.67   75.3    29    8.4   272    13.5   947.9    0.00 
 244   14:40   0.65   75.8    29    7.7   277    14.4   947.8    0.00 
 244   14:50   0.63   75.0    29    9.3   288    14.8   947.8    0.00 
 244   15:00   0.61   75.3    28    7.8   280    13.3   947.8    0.00 
 244   15:10   0.58   75.4    26    7.7   294    11.7   947.8    0.00 
 244   15:20   0.56   75.1    26    9.2   291    15.1   947.7    0.00 
 244   15:30   0.53   75.7    28    7.5   281    14.9   947.7    0.00 
 244   15:40   0.50   75.3    28    9.3   288    13.7   947.7    0.00 
 244   15:50   0.47   74.1    29    9.3   293    12.9   947.6    0.00 
 244   16:00   0.45   74.1    31    9.8   289    15.6   947.7    0.00 
 244   16:10   0.42   73.6    31    8.3   286    13.0   947.7    0.00 
 244   16:20   0.39   73.5    34    7.8   295    14.1   947.7    0.00 
 244   16:30   0.35   72.7    37    9.0   285    15.5   947.8    0.00 
 244   16:40   0.33   72.3    35    7.6   287    13.7   947.8    0.00 
 244   16:50   0.30   72.0    35    8.6   286    12.9   947.9    0.00 
 244   17:00   0.27   71.5    37    8.3   286    13.3   947.8    0.00 
 244   17:10   0.24   71.0    38    8.6   283    13.8   947.8    0.00 
 244   17:20   0.21   70.7    38    7.2   287    11.2   947.8    0.00 
 244   17:30   0.18   71.1    38    4.8   280     8.7   947.8    0.00 
 244   17:40   0.15   70.5    42    5.4   287     8.3   947.7    0.00 
 244   17:50   0.12   70.1    44    5.1   265     8.8   947.6    0.00 
 244   18:00   0.10   69.0    48    4.6   248     7.3   947.5    0.00 
 244   18:10   0.07   67.5    54    4.0   251     6.8   947.5    0.00 
 244   18:20   0.04   66.5    54    2.1   246     4.2   947.5    0.00 
 244   18:30   0.01   64.1    56    1.7   242     3.9   947.3    0.00 
 244   18:40   0.01   62.1    58    1.1   330     2.2   947.2    0.00 
 244   18:50   0.00   60.5    58    0.7    32     2.4   947.1    0.00 
 244   19:00   0.00   59.1    61    0.7    94     2.4   947.0    0.00 
 244   19:10   0.00   58.2    62    0.7    82     1.7   947.0    0.00 
 244   19:20   0.00   57.8    62    0.3    73     1.7   947.2    0.00 
 244   19:30   0.00   56.7    64    1.9    64     3.1   947.2    0.00 
 244   19:40   0.00   56.1    66    1.1    54     2.3   947.4    0.00 
 244   19:50   0.00   55.1    68    1.5    76     3.2   947.5    0.00 
 244   20:00   0.00   54.6    69    2.2    72     3.5   947.6    0.00 
 244   20:10   0.00   54.2    69    0.4   342     1.2   947.6    0.00 
 244   20:20   0.00   54.1    71    1.0   308     2.2   947.7    0.00 
 244   20:30   0.00   53.8    71    1.6   295     4.2   947.8    0.00 
 244   20:40   0.00   52.9    73    1.8    62     3.1   948.0    0.00 
 244   20:50   0.00   52.6    74    0.8    58     2.5   947.9    0.00 
 244   21:00   0.00   52.4    75    0.5   269     1.8   947.9    0.00 
 244   21:10   0.00   52.8    75    1.3   293     4.1   948.0    0.00 
 244   21:20   0.00   52.2    76    1.2   120     2.7   948.0    0.00 
 244   21:30   0.00   51.8    78    1.0   117     2.9   948.0    0.00 
 244   21:40   0.00   52.0    78    1.1   322     3.3   948.0    0.00 

Return to Blue Oak Ranch Reserve graphs page.


Western Regional Climate Center,wrcc@dri.edu